Time;durP1;ratioP1;P1;durP2;ratioP2;P2;SDS_P1;SDS_P2;PMS_P1;PMS_P2;Temp;Humidity;BMP_temperature;BMP_pressure;BME280_temperature;BME280_humidity;BME280_pressure;Samples;Min_cycle;Max_cycle;Signal;HPM_P1;HPM_P2
2024/01/17 00:01:54;;;;;;;12.40;6.40;;;-4.00;1.00;;;;;;5249464;28;20032;-31
2024/01/17 00:04:27;;;;;;;10.47;6.67;;;-4.00;1.00;;;;;;5254219;28;20395;-31
2024/01/17 00:07:03;;;;;;;13.13;6.18;;;-4.10;1.00;;;;;;5250943;28;20036;-31
2024/01/17 00:09:37;;;;;;;13.10;6.10;;;-4.20;1.00;;;;;;5245487;28;20355;-31
2024/01/17 00:12:08;;;;;;;13.88;6.53;;;-4.20;1.00;;;;;;5276992;28;20042;-31
2024/01/17 00:14:42;;;;;;;10.83;6.33;;;-4.30;1.00;;;;;;5271584;28;20352;-33
2024/01/17 00:17:14;;;;;;;10.37;5.80;;;-4.30;1.00;;;;;;5267030;28;20051;-31
2024/01/17 00:19:54;;;;;;;13.20;6.40;;;-4.40;1.00;;;;;;5250261;28;20320;-31
2024/01/17 00:22:28;;;;;;;15.20;7.63;;;-4.40;1.00;;;;;;5263347;28;20042;-31
2024/01/17 00:25:03;;;;;;;11.07;6.37;;;-4.40;1.00;;;;;;5253634;28;20036;-31
2024/01/17 00:27:41;;;;;;;14.17;6.30;;;-4.40;1.00;;;;;;5270977;28;20204;-31
2024/01/17 00:30:15;;;;;;;11.10;5.57;;;-4.40;1.00;;;;;;5268764;28;20034;-31
2024/01/17 00:32:46;;;;;;;11.00;6.07;;;-4.40;1.00;;;;;;5270786;28;20044;-32
2024/01/17 00:35:22;;;;;;;13.50;5.77;;;-4.40;1.00;;;;;;5270773;28;20417;-32
2024/01/17 00:37:53;;;;;;;13.07;5.93;;;-4.50;1.00;;;;;;5271654;28;20032;-32
2024/01/17 00:40:28;;;;;;;11.30;6.20;;;-4.50;1.00;;;;;;5270172;28;20036;-32
2024/01/17 00:43:02;;;;;;;10.43;6.20;;;-4.50;1.00;;;;;;5271187;28;20046;-32
2024/01/17 00:45:33;;;;;;;13.37;7.13;;;-4.60;1.00;;;;;;5248740;28;20028;-32
2024/01/17 00:48:07;;;;;;;12.27;7.43;;;-4.60;1.00;;;;;;5271078;28;20028;-31
2024/01/17 00:50:41;;;;;;;22.95;7.95;;;-4.70;1.00;;;;;;5253275;28;20028;-32
2024/01/17 00:53:13;;;;;;;18.53;7.17;;;-4.70;1.00;;;;;;5268285;28;20040;-32
2024/01/17 00:55:44;;;;;;;11.80;6.70;;;-4.70;1.00;;;;;;5236485;28;20032;-32
2024/01/17 00:58:18;;;;;;;9.43;6.27;;;-4.70;1.00;;;;;;5250730;28;20347;-31
2024/01/17 01:00:51;;;;;;;10.40;5.70;;;-4.80;1.00;;;;;;5232293;28;20032;-31
2024/01/17 01:03:23;;;;;;;13.88;6.72;;;-4.90;1.00;;;;;;5233790;28;20035;-32
2024/01/17 01:05:54;;;;;;;15.80;6.67;;;-4.90;1.00;;;;;;5271354;28;20038;-32
2024/01/17 01:08:28;;;;;;;10.67;6.37;;;-5.00;1.00;;;;;;5235643;28;20036;-32
2024/01/17 01:10:59;;;;;;;;;;;-4.90;1.00;;;;;;5271516;28;20036;-32
2024/01/17 01:13:34;;;;;;;14.30;6.27;;;-4.90;1.00;;;;;;5270225;28;20085;-32
2024/01/17 01:16:10;;;;;;;10.33;6.67;;;-4.90;16.00;;;;;;5268125;28;20027;-32
2024/01/17 01:18:43;;;;;;;11.40;6.30;;;-4.90;25.60;;;;;;5269817;28;20460;-32
2024/01/17 01:21:17;;;;;;;10.95;6.65;;;-4.90;44.80;;;;;;5270176;28;20027;-32
2024/01/17 01:23:51;;;;;;;16.83;6.83;;;-4.90;99.90;;;;;;5270561;28;20030;-32
2024/01/17 01:26:22;;;;;;;45.53;15.23;;;-4.90;94.00;;;;;;5271126;28;20199;-32
2024/01/17 01:28:54;;;;;;;34.90;12.83;;;-5.10;84.90;;;;;;5270026;28;20043;-32
2024/01/17 01:31:26;;;;;;;21.60;9.10;;;-5.10;81.20;;;;;;5267440;28;20032;-32
2024/01/17 01:33:59;;;;;;;12.13;6.77;;;-5.10;99.90;;;;;;5269063;28;20435;-32
2024/01/17 01:36:33;;;;;;;10.85;6.70;;;-5.20;99.90;;;;;;5270020;28;20033;-31
2024/01/17 01:39:09;;;;;;;12.75;7.28;;;-5.10;99.90;;;;;;5269740;28;20028;-32
2024/01/17 01:41:41;;;;;;;11.37;6.50;;;-5.10;99.90;;;;;;5252056;28;20320;-32
2024/01/17 01:44:14;;;;;;;13.93;7.43;;;-5.10;99.90;;;;;;5270665;28;20032;-32
2024/01/17 01:46:48;;;;;;;11.10;6.22;;;-5.10;99.90;;;;;;5244611;28;20036;-32
2024/01/17 01:49:22;;;;;;;14.93;6.80;;;-5.10;99.90;;;;;;5249955;28;20041;-32
2024/01/17 01:51:56;;;;;;;;;;;-5.10;99.90;;;;;;5262616;28;20040;-32
2024/01/17 01:54:28;;;;;;;17.13;7.10;;;-5.10;99.90;;;;;;5251675;28;19907;-32
2024/01/17 01:57:00;;;;;;;12.20;7.00;;;-5.10;99.90;;;;;;5268737;28;20038;-32
2024/01/17 01:59:34;;;;;;;13.27;7.13;;;-5.10;99.90;;;;;;5269244;28;20034;-32
2024/01/17 02:02:06;;;;;;;;;;;-5.10;99.90;;;;;;5266432;28;20224;-32
2024/01/17 02:04:40;;;;;;;15.73;7.00;;;-5.20;99.90;;;;;;5274530;28;20256;-31
2024/01/17 02:07:14;;;;;;;;;;;-5.20;99.90;;;;;;5274883;28;20102;-32
2024/01/17 02:09:45;;;;;;;21.38;7.40;;;-5.20;99.90;;;;;;5273685;28;19908;-32
2024/01/17 02:12:20;;;;;;;17.40;7.17;;;-5.20;99.90;;;;;;5272677;28;20031;-32
2024/01/17 02:14:55;;;;;;;17.40;6.93;;;-5.30;99.90;;;;;;5255572;28;20035;-32
2024/01/17 02:17:30;;;;;;;19.67;7.50;;;-5.40;99.90;;;;;;5270798;28;20030;-32
2024/01/17 02:20:02;;;;;;;16.80;8.20;;;-5.50;99.90;;;;;;5275169;28;20320;-32
2024/01/17 02:22:36;;;;;;;14.10;7.60;;;-5.50;99.90;;;;;;5256015;28;20028;-31
2024/01/17 02:25:07;;;;;;;17.05;8.02;;;-5.70;99.90;;;;;;5255793;28;20232;-31
2024/01/17 02:27:41;;;;;;;18.60;8.80;;;-5.70;99.90;;;;;;5273742;28;20044;-31
2024/01/17 02:30:14;;;;;;;16.60;7.47;;;-5.80;99.90;;;;;;5269534;28;20314;-31
2024/01/17 02:32:45;;;;;;;15.77;7.10;;;-5.80;99.90;;;;;;5254426;28;20244;-31
2024/01/17 02:35:20;;;;;;;15.20;8.00;;;-5.80;99.90;;;;;;5273901;28;20020;-31
2024/01/17 02:37:53;;;;;;;17.37;8.57;;;-5.80;99.90;;;;;;5239446;28;20028;-31
2024/01/17 02:40:27;;;;;;;15.80;7.28;;;-5.70;99.90;;;;;;5273008;28;20273;-31
2024/01/17 02:43:01;;;;;;;15.85;7.93;;;-5.80;99.90;;;;;;5273877;28;20032;-31
2024/01/17 02:45:33;;;;;;;21.87;8.73;;;-5.80;99.90;;;;;;5268927;28;20228;-33
2024/01/17 02:48:07;;;;;;;15.40;7.63;;;-5.70;99.90;;;;;;5271873;28;20078;-31
2024/01/17 02:50:39;;;;;;;15.43;7.63;;;-5.80;99.90;;;;;;5270904;28;20372;-31
2024/01/17 02:53:10;;;;;;;16.03;8.30;;;-5.80;99.90;;;;;;5271555;28;20036;-31
2024/01/17 02:55:44;;;;;;;19.37;8.90;;;-5.90;99.90;;;;;;5272968;28;20028;-31
2024/01/17 02:58:16;;;;;;;16.57;7.10;;;-6.00;99.90;;;;;;5271217;28;20032;-31
2024/01/17 03:00:47;;;;;;;16.63;7.80;;;-6.10;99.90;;;;;;5268800;28;20417;-31
2024/01/17 03:03:19;;;;;;;24.93;8.30;;;-6.10;99.90;;;;;;5273562;28;20034;-31
2024/01/17 03:05:51;;;;;;;14.13;7.47;;;-6.10;99.90;;;;;;5272982;28;20028;-31
2024/01/17 03:08:22;;;;;;;17.53;7.27;;;-6.10;99.90;;;;;;5271783;28;20362;-31
2024/01/17 03:10:59;;;;;;;13.47;7.97;;;-6.00;99.90;;;;;;5273470;28;20338;-31
2024/01/17 03:13:30;;;;;;;19.13;7.90;;;-6.10;99.90;;;;;;5253487;28;20047;-31
2024/01/17 03:16:03;;;;;;;15.47;7.47;;;-6.20;99.90;;;;;;5251350;28;20032;-31
2024/01/17 03:18:39;;;;;;;16.02;7.05;;;-6.30;99.90;;;;;;5272977;28;20224;-31
2024/01/17 03:21:11;;;;;;;17.23;8.47;;;-6.20;99.90;;;;;;5272599;28;20036;-31
2024/01/17 03:23:45;;;;;;;16.20;8.55;;;-6.10;99.90;;;;;;5272851;28;20031;-31
2024/01/17 03:26:18;;;;;;;21.63;8.97;;;-6.00;99.90;;;;;;5265226;28;20500;-31
2024/01/17 03:28:49;;;;;;;42.07;18.47;;;-6.20;99.90;;;;;;5260637;28;20040;-31
2024/01/17 03:31:20;;;;;;;47.87;22.30;;;-6.30;99.90;;;;;;5264382;28;20231;-32
2024/01/17 03:33:51;;;;;;;46.13;18.47;;;-6.20;99.90;;;;;;5253681;28;20028;-31
2024/01/17 03:36:28;;;;;;;53.43;23.70;;;-6.30;99.90;;;;;;5254323;28;20024;-31
2024/01/17 03:39:01;;;;;;;53.57;21.13;;;-6.30;99.90;;;;;;5271439;28;20020;-30
2024/01/17 03:41:33;;;;;;;;;;;-6.30;99.90;;;;;;5271695;28;20039;-31
2024/01/17 03:44:06;;;;;;;52.23;17.77;;;-6.10;99.90;;;;;;5271506;28;19922;-31
2024/01/17 03:46:37;;;;;;;44.10;18.15;;;-6.10;99.90;;;;;;5268735;28;20040;-31
2024/01/17 03:49:11;;;;;;;42.87;18.17;;;-6.10;99.90;;;;;;5254326;28;20039;-31
2024/01/17 03:51:48;;;;;;;35.57;16.43;;;-6.10;99.90;;;;;;5232567;28;20032;-32
2024/01/17 03:54:19;;;;;;;33.90;17.67;;;-6.00;99.90;;;;;;5268021;28;20027;-32
2024/01/17 03:56:50;;;;;;;39.40;16.87;;;-5.90;99.90;;;;;;5272489;28;20038;-32
2024/01/17 03:59:22;;;;;;;29.50;14.53;;;-5.90;99.90;;;;;;5249345;28;20263;-32
2024/01/17 04:01:53;;;;;;;33.70;15.03;;;-5.80;99.90;;;;;;5249862;28;20032;-32
2024/01/17 04:04:28;;;;;;;29.50;14.93;;;-5.70;99.90;;;;;;5252581;28;20024;-32
2024/01/17 04:07:04;;;;;;;35.50;14.97;;;-5.70;99.90;;;;;;5260744;28;20031;-32
2024/01/17 04:09:38;;;;;;;47.30;17.77;;;-5.60;99.90;;;;;;5268839;28;20020;-32
2024/01/17 04:12:09;;;;;;;33.45;15.30;;;-5.50;99.90;;;;;;5252926;28;20445;-32
2024/01/17 04:14:43;;;;;;;41.17;17.47;;;-5.40;99.90;;;;;;5251966;28;20198;-32
2024/01/17 04:17:14;;;;;;;44.90;15.63;;;-5.50;99.90;;;;;;5249716;28;20016;-32
2024/01/17 04:19:50;;;;;;;42.20;18.83;;;-5.50;99.90;;;;;;5253205;28;20034;-32
2024/01/17 04:22:24;;;;;;;49.30;21.77;;;-5.50;99.90;;;;;;5265176;28;20031;-32
2024/01/17 04:24:58;;;;;;;37.22;18.52;;;-5.60;99.90;;;;;;5271480;28;20046;-31
2024/01/17 04:27:31;;;;;;;30.55;15.57;;;-5.60;99.90;;;;;;5254864;28;20051;-31
2024/01/17 04:30:03;;;;;;;23.13;10.82;;;-5.60;99.90;;;;;;5272478;28;20220;-31
2024/01/17 04:32:35;;;;;;;30.50;14.20;;;-5.60;99.90;;;;;;5271428;28;20040;-31
2024/01/17 04:35:10;;;;;;;63.10;14.53;;;-5.60;99.90;;;;;;5254837;28;20357;-31
2024/01/17 04:37:41;;;;;;;25.73;13.80;;;-5.70;99.90;;;;;;5271510;28;20232;-31
2024/01/17 04:40:15;;;;;;;46.67;20.67;;;-5.60;99.90;;;;;;5254449;28;20046;-30
2024/01/17 04:42:58;;;;;;;44.70;17.20;;;-5.60;99.90;;;;;;5254285;28;20223;-31
2024/01/17 04:45:30;;;;;;;29.47;15.53;;;-5.60;99.90;;;;;;5251115;28;20043;-30
2024/01/17 04:48:04;;;;;;;32.33;17.63;;;-5.60;99.90;;;;;;5272371;28;20052;-31
2024/01/17 04:50:35;;;;;;;24.70;12.93;;;-5.40;99.90;;;;;;5273286;28;20105;-31
2024/01/17 04:53:10;;;;;;;23.43;12.30;;;-5.40;1.00;;;;;;5272302;28;20040;-31
2024/01/17 04:55:43;;;;;;;26.40;13.20;;;-5.40;1.00;;;;;;5272439;28;20024;-31
2024/01/17 04:58:14;;;;;;;22.33;13.38;;;-5.20;1.00;;;;;;5271971;28;20028;-31
2024/01/17 05:00:47;;;;;;;23.67;13.37;;;-5.00;1.00;;;;;;5250619;28;20032;-31
2024/01/17 05:03:19;;;;;;;20.00;10.10;;;-4.90;1.00;;;;;;5254030;28;20028;-31
2024/01/17 05:05:50;;;;;;;30.70;15.00;;;-4.80;1.00;;;;;;5272198;28;20032;-31
2024/01/17 05:08:24;;;;;;;24.93;13.23;;;-4.60;1.00;;;;;;5253995;28;20035;-32
2024/01/17 05:10:58;;;;;;;30.20;14.40;;;-4.60;1.00;;;;;;5271230;28;20324;-31
2024/01/17 05:13:30;;;;;;;27.43;14.73;;;-4.50;99.90;;;;;;5272124;28;20032;-32
2024/01/17 05:16:05;;;;;;;29.27;13.43;;;-4.50;99.90;;;;;;5268795;28;20032;-31
2024/01/17 05:18:39;;;;;;;27.17;13.00;;;-4.60;99.90;;;;;;5278759;28;20028;-31
2024/01/17 05:21:11;;;;;;;;;;;-4.90;99.90;;;;;;5260863;28;20044;-31
2024/01/17 05:23:44;;;;;;;27.60;13.93;;;-4.80;99.90;;;;;;5271513;28;19912;-32
2024/01/17 05:26:16;;;;;;;31.15;14.48;;;-4.70;99.90;;;;;;5271169;28;20028;-31
2024/01/17 05:28:48;;;;;;;32.37;13.40;;;-4.80;99.90;;;;;;5271445;28;20042;-31
2024/01/17 05:31:19;;;;;;;27.77;14.10;;;-4.80;99.90;;;;;;5269308;28;20038;-31
2024/01/17 05:33:50;;;;;;;36.93;15.90;;;-4.70;99.90;;;;;;5252316;28;20035;-31
2024/01/17 05:36:25;;;;;;;30.87;14.60;;;-4.50;1.00;;;;;;5256725;28;20036;-31
2024/01/17 05:39:04;;;;;;;24.90;14.70;;;-4.60;99.90;;;;;;5282890;28;20028;-31
2024/01/17 05:41:39;;;;;;;28.70;14.73;;;-4.50;99.90;;;;;;5276229;28;20030;-31
2024/01/17 05:44:12;;;;;;;29.30;14.30;;;-4.40;99.90;;;;;;5249332;28;20240;-31
2024/01/17 05:46:46;;;;;;;23.83;12.17;;;-4.40;99.90;;;;;;5267228;28;20048;-31
2024/01/17 05:49:18;;;;;;;31.30;15.57;;;-4.30;99.90;;;;;;5251394;28;20044;-31
2024/01/17 05:51:50;;;;;;;28.33;14.87;;;-4.20;99.90;;;;;;5271287;28;20043;-32
2024/01/17 05:54:21;;;;;;;23.27;12.17;;;-4.20;99.90;;;;;;5268260;28;20051;-31
2024/01/17 05:56:52;;;;;;;27.00;11.93;;;-4.10;99.90;;;;;;5269735;28;20016;-31
2024/01/17 05:59:26;;;;;;;20.27;10.50;;;-4.00;99.90;;;;;;5268411;28;20031;-31
2024/01/17 06:01:57;;;;;;;23.05;11.48;;;-3.90;99.90;;;;;;5262984;28;20030;-30
2024/01/17 06:04:28;;;;;;;23.13;9.13;;;-3.80;99.90;;;;;;5261383;28;20036;-31
2024/01/17 06:07:00;;;;;;;16.50;8.43;;;-3.80;99.90;;;;;;5269282;28;20044;-32
2024/01/17 06:09:31;;;;;;;17.27;8.63;;;-3.70;99.90;;;;;;5270223;28;20228;-32
2024/01/17 06:12:02;;;;;;;16.70;8.67;;;-3.70;99.90;;;;;;5269046;28;20047;-32
2024/01/17 06:14:36;;;;;;;21.73;9.43;;;-3.70;99.90;;;;;;5270805;28;20032;-32
2024/01/17 06:17:08;;;;;;;16.65;8.30;;;-3.60;99.90;;;;;;5267714;28;20028;-32
2024/01/17 06:19:42;;;;;;;18.27;8.17;;;-3.70;99.90;;;;;;5267731;28;20038;-30
2024/01/17 06:22:20;;;;;;;14.97;8.63;;;-3.50;99.90;;;;;;5270600;28;20043;-30
2024/01/17 06:24:51;;;;;;;18.47;8.90;;;-3.40;99.90;;;;;;5252710;28;20046;-30
2024/01/17 06:27:25;;;;;;;20.57;10.30;;;-3.40;99.90;;;;;;5271495;28;20352;-31
2024/01/17 06:29:59;;;;;;;23.10;9.63;;;-3.30;99.90;;;;;;5270780;28;20320;-31
2024/01/17 06:32:35;;;;;;;22.95;10.55;;;-3.40;99.90;;;;;;5267388;28;20586;-31
2024/01/17 06:35:10;;;;;;;13.83;7.73;;;-3.50;99.90;;;;;;5271007;28;20032;-30
2024/01/17 06:37:41;;;;;;;20.30;8.53;;;-3.50;99.90;;;;;;5269299;28;20032;-30
2024/01/17 06:40:17;;;;;;;24.90;10.00;;;-3.50;99.90;;;;;;5270996;28;20039;-31
2024/01/17 06:42:48;;;;;;;26.87;9.83;;;-3.50;99.90;;;;;;5271119;28;20027;-30
2024/01/17 06:45:21;;;;;;;27.93;10.23;;;-3.30;1.00;;;;;;5283657;28;20209;-30
2024/01/17 06:47:57;;;;;;;46.35;13.40;;;-3.30;1.00;;;;;;5271118;28;20046;-30
2024/01/17 06:50:30;;;;;;;25.13;10.57;;;-3.30;1.00;;;;;;5286949;28;20044;-32
2024/01/17 06:53:04;;;;;;;27.40;10.73;;;-3.20;1.00;;;;;;5255815;28;20061;-30
2024/01/17 06:55:36;;;;;;;21.88;9.80;;;-2.90;1.00;;;;;;5253746;28;20391;-30
2024/01/17 06:58:08;;;;;;;21.38;10.25;;;-2.80;1.00;;;;;;5255528;28;20032;-30
2024/01/17 07:00:39;;;;;;;25.50;10.17;;;-2.60;1.00;;;;;;5266721;28;20090;-31
2024/01/17 07:03:11;;;;;;;26.48;12.50;;;-2.50;99.90;;;;;;5262737;28;20042;-31
2024/01/17 07:05:48;;;;;;;26.83;12.73;;;-2.50;99.90;;;;;;5257069;28;20353;-33
2024/01/17 07:08:20;;;;;;;30.25;13.95;;;-2.20;99.90;;;;;;5274376;28;20216;-31
2024/01/17 07:10:59;;;;;;;24.03;10.67;;;-2.20;99.90;;;;;;5251445;28;20221;-31
2024/01/17 07:13:34;;;;;;;30.60;12.73;;;-2.20;99.90;;;;;;5253833;28;20039;-30
2024/01/17 07:16:09;;;;;;;28.77;13.70;;;-2.30;99.90;;;;;;5261660;28;20026;-31
2024/01/17 07:18:40;;;;;;;23.13;11.13;;;-2.30;99.90;;;;;;5266010;28;20043;-31
2024/01/17 07:21:14;;;;;;;27.92;10.77;;;-2.30;99.90;;;;;;5270674;28;20247;-31
2024/01/17 07:23:47;;;;;;;23.85;11.80;;;-2.30;99.90;;;;;;5268460;28;20035;-30
2024/01/17 07:26:22;;;;;;;32.77;14.63;;;-2.50;99.90;;;;;;5253750;28;20039;-31
2024/01/17 07:29:00;;;;;;;27.52;14.27;;;-2.40;99.90;;;;;;5273181;28;20215;-30
2024/01/17 07:31:32;;;;;;;27.60;11.53;;;-2.50;99.90;;;;;;5265996;28;20032;-31
2024/01/17 07:34:08;;;;;;;26.92;12.20;;;-2.50;99.90;;;;;;5235242;28;20040;-30
2024/01/17 07:36:40;;;;;;;25.35;11.52;;;-2.50;99.90;;;;;;5270938;28;20048;-30
2024/01/17 07:39:18;;;;;;;31.90;11.35;;;-2.40;99.90;;;;;;5251689;28;20046;-33
2024/01/17 07:41:49;;;;;;;21.53;10.23;;;-2.30;99.90;;;;;;5255155;28;20032;-30
2024/01/17 07:44:29;;;;;;;33.20;13.57;;;-2.20;99.90;;;;;;5252745;28;20039;-31
2024/01/17 07:47:00;;;;;;;27.33;13.07;;;-2.20;99.90;;;;;;5267382;28;20042;-31
2024/01/17 07:49:40;;;;;;;31.35;13.75;;;-2.20;99.90;;;;;;5271297;28;20028;-31
2024/01/17 07:52:16;;;;;;;30.92;13.35;;;-2.10;99.90;;;;;;5258295;28;20323;-31
2024/01/17 07:54:48;;;;;;;27.73;13.32;;;-2.20;99.90;;;;;;5248803;28;20359;-31
2024/01/17 07:57:26;;;;;;;24.20;12.43;;;-2.10;99.90;;;;;;5266559;28;20035;-31
2024/01/17 07:59:59;;;;;;;29.35;12.55;;;-2.00;99.90;;;;;;5267865;28;20024;-30
2024/01/17 08:02:31;;;;;;;26.27;12.43;;;-2.00;99.90;;;;;;5253681;28;20271;-31
2024/01/17 08:05:02;;;;;;;21.27;11.85;;;-2.00;99.90;;;;;;5271236;28;20324;-31
2024/01/17 08:07:34;;;;;;;21.85;9.90;;;-1.90;99.90;;;;;;5271387;28;20046;-30
2024/01/17 08:10:06;;;;;;;33.95;11.88;;;-2.00;99.90;;;;;;5269147;28;20036;-31
2024/01/17 08:12:37;;;;;;;24.92;10.75;;;-2.10;99.90;;;;;;5260822;28;20042;-33
2024/01/17 08:15:08;;;;;;;82.00;22.77;;;-1.90;99.90;;;;;;5267136;28;20464;-30
2024/01/17 08:17:41;;;;;;;28.80;12.20;;;-1.90;99.90;;;;;;5272286;28;20024;-30
2024/01/17 08:20:14;;;;;;;22.75;11.00;;;-1.80;99.90;;;;;;5265866;28;20311;-30
2024/01/17 08:22:51;;;;;;;26.88;12.57;;;-1.80;99.90;;;;;;5271723;28;20026;-30
2024/01/17 08:25:25;;;;;;;27.40;12.55;;;-1.70;99.90;;;;;;5269375;28;20036;-30
2024/01/17 08:27:58;;;;;;;24.80;11.43;;;-1.70;99.90;;;;;;5271176;28;20318;-30
2024/01/17 08:30:29;;;;;;;23.02;10.85;;;-1.90;99.90;;;;;;5257515;28;20054;-30
2024/01/17 08:33:01;;;;;;;27.90;11.00;;;-2.00;99.90;;;;;;5268042;28;20043;-35
2024/01/17 08:35:35;;;;;;;25.08;11.70;;;-2.10;99.90;;;;;;5269297;28;20039;-32
2024/01/17 08:38:08;;;;;;;27.77;11.38;;;-1.90;1.00;;;;;;5270649;28;20024;-31
2024/01/17 08:40:42;;;;;;;28.40;12.75;;;-1.70;99.90;;;;;;5245393;28;20267;-31
2024/01/17 08:43:14;;;;;;;34.70;13.60;;;-1.70;99.90;;;;;;5250138;28;20035;-31
2024/01/17 08:45:51;;;;;;;31.15;13.70;;;-1.70;99.90;;;;;;5264971;28;20032;-31
2024/01/17 08:48:22;;;;;;;31.65;14.32;;;-1.60;99.90;;;;;;5265856;28;20035;-31
2024/01/17 08:50:53;;;;;;;24.70;12.02;;;-1.40;1.00;;;;;;5248247;28;20031;-31
2024/01/17 08:53:24;;;;;;;30.88;12.82;;;-1.30;99.90;;;;;;5251900;28;20290;-31
2024/01/17 08:56:04;;;;;;;33.72;12.55;;;-1.40;99.90;;;;;;5246871;28;20037;-30
2024/01/17 08:58:38;;;;;;;34.38;13.50;;;-1.50;99.90;;;;;;5259332;28;20036;-31
2024/01/17 09:01:10;;;;;;;33.30;13.32;;;-1.60;99.90;;;;;;5251608;28;20031;-31
2024/01/17 09:03:43;;;;;;;31.48;12.98;;;-1.80;99.90;;;;;;5246720;28;20040;-31
2024/01/17 09:06:14;;;;;;;33.45;14.60;;;-1.90;99.90;;;;;;5265338;28;20324;-31
2024/01/17 09:08:46;;;;;;;30.60;13.95;;;-1.70;1.00;;;;;;5251747;28;20028;-31
2024/01/17 09:11:19;;;;;;;33.15;13.48;;;-1.50;1.00;;;;;;5238983;28;20213;-33
2024/01/17 09:13:51;;;;;;;26.35;13.02;;;-1.30;1.00;;;;;;5269759;28;20040;-31
2024/01/17 09:16:22;;;;;;;29.67;13.40;;;-1.10;1.00;;;;;;5247996;28;20038;-31
2024/01/17 09:18:53;;;;;;;33.60;12.77;;;-1.00;99.90;;;;;;5258240;28;20342;-31
2024/01/17 09:21:24;;;;;;;28.17;13.10;;;-1.20;99.90;;;;;;5262414;28;20355;-31
2024/01/17 09:23:56;;;;;;;25.83;11.20;;;-1.20;99.90;;;;;;5269867;28;20032;-31
2024/01/17 09:26:27;;;;;;;26.83;12.85;;;-1.30;99.90;;;;;;5269456;28;20039;-31
2024/01/17 09:28:58;;;;;;;21.83;10.70;;;-1.20;99.90;;;;;;5266519;28;20028;-31
2024/01/17 09:31:29;;;;;;;26.98;11.60;;;-1.10;99.90;;;;;;5249739;28;20031;-31
2024/01/17 09:34:01;;;;;;;25.20;11.57;;;-1.40;99.90;;;;;;5269562;28;20024;-32
2024/01/17 09:36:35;;;;;;;24.33;10.93;;;-1.40;1.00;;;;;;5268198;28;20251;-33
2024/01/17 09:39:09;;;;;;;23.60;11.35;;;-1.50;1.00;;;;;;5255222;28;20038;-31
2024/01/17 09:41:40;;;;;;;27.40;10.45;;;-1.40;1.00;;;;;;5262888;28;20339;-30
2024/01/17 09:44:14;;;;;;;25.90;10.30;;;-1.30;1.00;;;;;;5258215;28;20042;-30
2024/01/17 09:46:47;;;;;;;20.90;9.70;;;-1.40;99.90;;;;;;5261026;28;20255;-30
2024/01/17 09:49:18;;;;;;;15.48;6.85;;;-1.30;1.00;;;;;;5258270;28;20047;-30
2024/01/17 09:51:50;;;;;;;23.23;10.77;;;-1.50;1.00;;;;;;5266932;28;20032;-31
2024/01/17 09:54:26;;;;;;;22.13;10.75;;;-1.50;1.00;;;;;;5268504;28;20028;-31
2024/01/17 09:57:07;;;;;;;26.60;12.15;;;-1.50;1.00;;;;;;5266776;28;20297;-31
2024/01/17 09:59:47;;;;;;;32.25;12.88;;;-1.30;1.00;;;;;;5261297;28;20028;-31
2024/01/17 10:02:20;;;;;;;24.55;10.70;;;-1.10;1.00;;;;;;5266098;28;20028;-31
2024/01/17 10:04:53;;;;;;;24.75;12.00;;;-1.20;1.00;;;;;;5269817;28;20069;-31
2024/01/17 10:07:24;;;;;;;27.70;10.45;;;-1.40;99.90;;;;;;5267016;28;20248;-31
2024/01/17 10:09:57;;;;;;;26.77;12.47;;;-1.40;1.00;;;;;;5263276;28;20346;-31
2024/01/17 10:12:28;;;;;;;27.38;13.75;;;-1.20;1.00;;;;;;5250930;28;20046;-30
2024/01/17 10:15:06;;;;;;;23.23;11.23;;;-1.30;1.00;;;;;;5268679;28;20212;-31
2024/01/17 10:17:37;;;;;;;28.60;13.48;;;-1.20;1.00;;;;;;5265695;28;21020;-32
2024/01/17 10:20:09;;;;;;;24.42;11.77;;;-1.20;1.00;;;;;;5243958;28;20301;-32
2024/01/17 10:22:43;;;;;;;26.55;11.95;;;-1.00;1.00;;;;;;5258033;28;20031;-32
2024/01/17 10:25:14;;;;;;;30.20;14.40;;;-0.80;1.00;;;;;;5272511;28;20034;-31
2024/01/17 10:27:51;;;;;;;29.48;12.80;;;-0.70;99.90;;;;;;5272818;28;20038;-32
2024/01/17 10:30:24;;;;;;;32.53;13.60;;;-0.60;99.90;;;;;;5268695;28;20050;-31
2024/01/17 10:32:56;;;;;;;28.00;12.20;;;-0.70;99.90;;;;;;5273153;28;20324;-32
2024/01/17 10:35:27;;;;;;;24.02;13.45;;;-0.60;99.90;;;;;;5257005;28;20036;-31
2024/01/17 10:37:59;;;;;;;23.00;12.13;;;-0.40;99.90;;;;;;5267368;28;20213;-31
2024/01/17 10:40:31;;;;;;;25.10;12.10;;;-0.30;99.90;;;;;;5272351;28;20043;-31
2024/01/17 10:43:09;;;;;;;24.10;11.52;;;-0.10;99.90;;;;;;5272742;28;20038;-31
2024/01/17 10:45:45;;;;;;;34.63;12.57;;;-0.20;99.90;;;;;;5266861;28;20054;-31
2024/01/17 10:48:16;;;;;;;25.30;12.63;;;-0.30;99.90;;;;;;5250184;28;20051;-31
2024/01/17 10:50:47;;;;;;;27.40;12.75;;;-0.50;99.90;;;;;;5253570;28;20370;-31
2024/01/17 10:53:19;;;;;;;28.17;12.23;;;-0.40;99.90;;;;;;5269863;28;20297;-32
2024/01/17 10:55:59;;;;;;;26.10;13.65;;;-0.30;99.90;;;;;;5264867;28;20044;-32
2024/01/17 10:58:35;;;;;;;26.60;12.85;;;-0.50;99.90;;;;;;5264343;28;20032;-31
2024/01/17 11:01:14;;;;;;;27.80;12.90;;;-0.60;99.90;;;;;;5257559;28;20043;-31
2024/01/17 11:03:49;;;;;;;26.50;11.50;;;-0.40;99.90;;;;;;5249657;28;20043;-31
2024/01/17 11:06:25;;;;;;;29.23;13.18;;;-0.40;99.90;;;;;;5266928;28;20032;-31
2024/01/17 11:08:57;;;;;;;26.83;12.63;;;-0.20;99.90;;;;;;5260889;28;20338;-33
2024/01/17 11:11:31;;;;;;;30.58;13.85;;;0.00;99.90;;;;;;5253934;28;20050;-31
2024/01/17 11:14:03;;;;;;;28.65;13.50;;;0.10;99.90;;;;;;5272705;28;20044;-31
2024/01/17 11:16:42;;;;;;;28.38;13.25;;;0.10;99.90;;;;;;5268513;28;20518;-31
2024/01/17 11:19:14;;;;;;;28.65;13.73;;;0.10;99.90;;;;;;5261522;28;20365;-31
2024/01/17 11:21:47;;;;;;;33.10;14.27;;;0.30;99.90;;;;;;5253382;28;20030;-31
2024/01/17 11:24:57;;;;;;;29.23;13.40;;;0.40;73.10;;;;;;5272270;28;20034;-31
2024/01/17 11:27:38;;;;;;;36.13;12.52;;;0.50;1.00;;;;;;5272228;28;20024;-31
2024/01/17 11:30:32;;;;;;;26.08;13.18;;;0.70;1.00;;;;;;5264447;28;20428;-31
2024/01/17 11:33:10;;;;;;;33.03;14.53;;;0.60;1.00;;;;;;5268730;28;20030;-31
2024/01/17 11:35:46;;;;;;;26.02;13.40;;;0.80;1.00;;;;;;5239554;28;20279;-31
2024/01/17 11:38:30;;;;;;;28.20;12.68;;;0.60;1.00;;;;;;5270833;28;20032;-31
2024/01/17 11:41:09;;;;;;;27.83;13.18;;;0.80;1.00;;;;;;5262743;28;20028;-31
2024/01/17 11:43:42;;;;;;;27.00;13.68;;;0.90;1.00;;;;;;5247513;28;20342;-31
2024/01/17 11:46:13;;;;;;;30.95;13.02;;;0.90;1.00;;;;;;5263058;28;20320;-31
2024/01/17 11:48:47;;;;;;;29.33;13.70;;;1.10;99.90;;;;;;5253731;28;20024;-31
2024/01/17 11:51:24;;;;;;;35.17;13.75;;;1.30;1.00;;;;;;5230244;28;20028;-31
2024/01/17 11:53:58;;;;;;;31.27;13.73;;;1.40;99.90;;;;;;5222014;28;20187;-30
2024/01/17 11:56:32;;;;;;;32.03;12.85;;;1.40;99.90;;;;;;5245902;28;20046;-31
2024/01/17 11:59:12;;;;;;;24.42;13.50;;;1.20;1.00;;;;;;5246794;28;20329;-35
2024/01/17 12:01:43;;;;;;;30.80;13.57;;;1.10;1.00;;;;;;5223421;28;20317;-31
2024/01/17 12:04:21;;;;;;;30.85;14.43;;;0.90;99.90;;;;;;5241125;28;20032;-31
2024/01/17 12:06:53;;;;;;;28.92;13.40;;;0.90;1.00;;;;;;5247513;28;20039;-31
2024/01/17 12:09:29;;;;;;;29.00;12.98;;;0.80;1.00;;;;;;5246878;28;20029;-31
2024/01/17 12:12:01;;;;;;;27.55;13.88;;;1.00;1.00;;;;;;5246977;28;20036;-31
2024/01/17 12:14:35;;;;;;;28.65;14.15;;;1.30;99.90;;;;;;5246098;28;20108;-31
2024/01/17 12:17:08;;;;;;;32.85;14.68;;;1.40;99.90;;;;;;5231879;28;20273;-31
2024/01/17 12:19:39;;;;;;;30.40;14.23;;;1.60;1.00;;;;;;5228740;28;20048;-31
2024/01/17 12:22:11;;;;;;;32.10;13.98;;;1.50;1.00;;;;;;5250956;28;20024;-31
2024/01/17 12:24:45;;;;;;;34.15;14.50;;;1.70;1.00;;;;;;5251256;28;20235;-31
2024/01/17 12:27:18;;;;;;;;;;;1.70;1.00;;;;;;5250584;28;20445;-31
2024/01/17 12:29:55;;;;;;;25.45;12.13;;;1.90;1.00;;;;;;5250911;28;19911;-32
2024/01/17 12:32:26;;;;;;;27.50;12.85;;;1.90;1.00;;;;;;5264717;28;20227;-32
2024/01/17 12:34:59;;;;;;;27.55;13.38;;;1.90;1.00;;;;;;5268590;28;20039;-30
2024/01/17 12:37:35;;;;;;;29.60;13.20;;;1.70;29.20;;;;;;5267876;28;20046;-31
2024/01/17 12:40:08;;;;;;;29.92;13.85;;;1.50;1.00;;;;;;5255558;28;20259;-30
2024/01/17 12:42:42;;;;;;;28.55;13.15;;;1.50;1.00;;;;;;5269156;28;20227;-31
2024/01/17 12:45:16;;;;;;;28.25;13.98;;;1.60;1.00;;;;;;5265814;28;20015;-30
2024/01/17 12:47:48;;;;;;;37.08;14.32;;;1.60;1.00;;;;;;5267965;28;20355;-31
2024/01/17 12:50:27;;;;;;;27.40;13.23;;;1.60;1.00;;;;;;5247824;28;20046;-30
2024/01/17 12:53:03;;;;;;;25.15;13.13;;;1.60;1.00;;;;;;5264447;28;20028;-30
2024/01/17 12:55:35;;;;;;;32.58;13.50;;;1.50;1.00;;;;;;5251307;28;20035;-30
2024/01/17 12:58:11;;;;;;;27.35;13.32;;;1.40;1.00;;;;;;5268635;28;20093;-31
2024/01/17 13:00:47;;;;;;;25.63;11.93;;;1.30;99.90;;;;;;5247314;28;20038;-31
2024/01/17 13:03:21;;;;;;;26.50;12.77;;;1.30;1.00;;;;;;5252282;28;20035;-30
2024/01/17 13:06:00;;;;;;;27.15;12.75;;;1.20;99.90;;;;;;5269128;28;20051;-30
2024/01/17 13:08:39;;;;;;;29.10;12.95;;;1.20;99.90;;;;;;5269620;28;20031;-31